Time;durP1;ratioP1;P1;durP2;ratioP2;P2;SDS_P1;SDS_P2;PMS_P1;PMS_P2;Temp;Humidity;BMP_temperature;BMP_pressure;BME280_temperature;BME280_humidity;BME280_pressure;Samples;Min_cycle;Max_cycle;Signal;HPM_P1;HPM_P2
2022/04/14 00:01:12;;;;;;;;;78.40;62.00;;;;;;;;5216840;28;8798;-66
2022/04/14 00:03:43;;;;;;;;;78.80;60.60;;;;;;;;5267951;28;8794;-67
2022/04/14 00:06:15;;;;;;;;;74.60;59.20;;;;;;;;5233614;28;8785;-67
2022/04/14 00:08:46;;;;;;;;;64.60;52.80;;;;;;;;5250228;28;8785;-67
2022/04/14 00:11:17;;;;;;;;;54.40;45.00;;;;;;;;5250085;28;8782;-67
2022/04/14 00:13:48;;;;;;;;;63.80;51.00;;;;;;;;5250245;28;8786;-67
2022/04/14 00:16:20;;;;;;;;;69.80;57.00;;;;;;;;5267569;28;8782;-68
2022/04/14 00:18:51;;;;;;;;;58.60;48.60;;;;;;;;5266622;28;8832;-68
2022/04/14 00:21:22;;;;;;;;;54.40;46.00;;;;;;;;5232514;28;8830;-67
2022/04/14 00:23:53;;;;;;;;;51.80;44.40;;;;;;;;5249767;28;8813;-69
2022/04/14 00:26:44;;;;;;;;;52.80;45.40;;;;;;;;5249904;28;8771;-68
2022/04/14 00:29:15;;;;;;;;;61.60;52.00;;;;;;;;5249939;28;8762;-69
2022/04/14 00:31:46;;;;;;;;;52.00;45.20;;;;;;;;5233219;28;8922;-69
2022/04/14 00:34:17;;;;;;;;;65.40;54.00;;;;;;;;5267299;28;8775;-69
2022/04/14 00:36:48;;;;;;;;;89.00;66.60;;;;;;;;5233144;28;8774;-69
2022/04/14 00:39:19;;;;;;;;;87.00;69.60;;;;;;;;5232334;28;9568;-69
2022/04/14 00:41:51;;;;;;;;;88.00;68.25;;;;;;;;5249321;28;8831;-69
2022/04/14 00:44:40;;;;;;;;;83.20;65.00;;;;;;;;5251881;28;9493;-69
2022/04/14 00:47:12;;;;;;;;;89.60;66.40;;;;;;;;5267521;28;8802;-69
2022/04/14 00:49:43;;;;;;;;;97.25;82.75;;;;;;;;5249385;28;8932;-69
2022/04/14 00:52:15;;;;;;;;;88.50;75.50;;;;;;;;5216204;28;8802;-67
2022/04/14 00:54:47;;;;;;;;;87.50;69.75;;;;;;;;5248513;28;8872;-68
2022/04/14 00:57:18;;;;;;;;;78.20;63.40;;;;;;;;5248867;28;8796;-70
2022/04/14 01:00:08;;;;;;;;;84.00;67.60;;;;;;;;5251327;28;8915;-70
2022/04/14 01:02:39;;;;;;;;;83.00;63.80;;;;;;;;5232484;28;8995;-68
2022/04/14 01:05:10;;;;;;;;;76.80;62.60;;;;;;;;5249479;28;9489;-68
2022/04/14 01:08:01;;;;;;;;;86.00;65.00;;;;;;;;5235090;28;8806;-68
2022/04/14 01:10:33;;;;;;;;;95.25;80.25;;;;;;;;5232789;28;8795;-68
2022/04/14 01:13:04;;;;;;;;;87.60;72.00;;;;;;;;5249149;28;8781;-68
2022/04/14 01:15:36;;;;;;;;;92.20;77.40;;;;;;;;5266059;28;8787;-68
2022/04/14 01:18:07;;;;;;;;;80.60;65.40;;;;;;;;5232157;28;8787;-67
2022/04/14 01:20:38;;;;;;;;;89.80;73.20;;;;;;;;5249040;28;8852;-68
2022/04/14 01:23:10;;;;;;;;;83.80;68.00;;;;;;;;5249156;28;8778;-68
2022/04/14 01:25:41;;;;;;;;;82.80;66.20;;;;;;;;5248851;28;8775;-67
2022/04/14 01:28:12;;;;;;;;;89.20;71.40;;;;;;;;5266868;28;8893;-67
2022/04/14 01:30:44;;;;;;;;;35.40;31.80;;;;;;;;5248998;28;8826;-69
2022/04/14 01:33:16;;;;;;;;;78.60;62.40;;;;;;;;5249270;28;8835;-67
2022/04/14 01:35:47;;;;;;;;;71.20;57.80;;;;;;;;5231781;28;8805;-67
2022/04/14 01:38:18;;;;;;;;;57.20;49.00;;;;;;;;5215640;28;8794;-67
2022/04/14 01:40:49;;;;;;;;;82.80;64.80;;;;;;;;5248756;28;8818;-68
2022/04/14 01:43:21;;;;;;;;;74.20;61.00;;;;;;;;5266580;28;8833;-68
2022/04/14 01:45:52;;;;;;;;;68.40;54.80;;;;;;;;5249222;28;8908;-68
2022/04/14 01:48:24;;;;;;;;;73.40;57.20;;;;;;;;5215574;28;8794;-69
2022/04/14 01:50:56;;;;;;;;;66.80;54.00;;;;;;;;5266743;28;8905;-68
2022/04/14 01:53:27;;;;;;;;;68.60;55.40;;;;;;;;5249032;28;8775;-68
2022/04/14 01:55:58;;;;;;;;;65.60;54.00;;;;;;;;5265322;28;8770;-71
2022/04/14 01:58:29;;;;;;;;;46.00;41.60;;;;;;;;5248285;28;8787;-68
2022/04/14 02:01:00;;;;;;;;;34.60;34.00;;;;;;;;5232038;28;8845;-68
2022/04/14 02:03:32;;;;;;;;;28.20;28.20;;;;;;;;5232295;28;8947;-68
2022/04/14 02:06:22;;;;;;;;;37.20;33.40;;;;;;;;5249795;28;8779;-69
2022/04/14 02:08:53;;;;;;;;;35.40;35.40;;;;;;;;5252589;28;8754;-67
2022/04/14 02:11:42;;;;;;;;;33.40;32.60;;;;;;;;5255432;28;8767;-69
2022/04/14 02:14:13;;;;;;;;;34.60;32.60;;;;;;;;5251965;28;8790;-67
2022/04/14 02:16:44;;;;;;;;;31.00;30.25;;;;;;;;5252332;28;8808;-69
2022/04/14 02:19:16;;;;;;;;;36.40;34.60;;;;;;;;5269300;28;8794;-69
2022/04/14 02:21:47;;;;;;;;;45.00;43.00;;;;;;;;5269031;28;8799;-68
2022/04/14 02:24:18;;;;;;;;;42.40;41.40;;;;;;;;5269287;28;10440;-68
2022/04/14 02:26:49;;;;;;;;;35.40;28.80;;;;;;;;5269978;28;8831;-68
2022/04/14 02:29:20;;;;;;;;;38.80;36.80;;;;;;;;5252388;28;8791;-70
2022/04/14 02:31:55;;;;;;;;;45.20;41.40;;;;;;;;5231559;28;8796;-67
2022/04/14 02:34:26;;;;;;;;;58.40;49.80;;;;;;;;5268777;28;9551;-66
2022/04/14 02:37:00;;;;;;;;;33.80;32.20;;;;;;;;5236077;28;8766;-66
2022/04/14 02:39:31;;;;;;;;;37.80;34.40;;;;;;;;5235236;28;8798;-66
2022/04/14 02:42:21;;;;;;;;;25.80;25.40;;;;;;;;5254331;28;8803;-66
2022/04/14 02:44:52;;;;;;;;;13.40;13.40;;;;;;;;5269510;28;8974;-66
2022/04/14 02:47:23;;;;;;;;;15.40;15.40;;;;;;;;5213876;28;8951;-67
2022/04/14 02:49:54;;;;;;;;;15.80;15.60;;;;;;;;5230377;28;8922;-67
2022/04/14 02:52:43;;;;;;;;;30.60;30.60;;;;;;;;5248099;28;8911;-66
2022/04/14 02:55:14;;;;;;;;;26.60;22.80;;;;;;;;5251401;28;8937;-66
2022/04/14 02:58:04;;;;;;;;;15.20;15.20;;;;;;;;5251695;28;8817;-66
2022/04/14 03:00:35;;;;;;;;;28.40;23.40;;;;;;;;5251142;28;8838;-67
2022/04/14 03:03:06;;;;;;;;;33.60;33.00;;;;;;;;5251648;28;8774;-66
2022/04/14 03:05:37;;;;;;;;;28.40;27.20;;;;;;;;5265400;28;8791;-66
2022/04/14 03:08:08;;;;;;;;;19.40;19.40;;;;;;;;5254893;28;8820;-66
2022/04/14 03:10:39;;;;;;;;;30.00;26.50;;;;;;;;5260359;28;8791;-66
2022/04/14 03:13:28;;;;;;;;;30.20;27.60;;;;;;;;5250722;28;8795;-67
2022/04/14 03:15:59;;;;;;;;;64.50;52.50;;;;;;;;5269020;28;8782;-67
2022/04/14 03:18:30;;;;;;;;;39.50;34.25;;;;;;;;5250541;28;8766;-67
2022/04/14 03:21:01;;;;;;;;;58.40;49.20;;;;;;;;5251627;28;11590;-67
2022/04/14 03:23:32;;;;;;;;;49.80;43.20;;;;;;;;5267862;28;8771;-67
2022/04/14 03:26:03;;;;;;;;;57.50;49.00;;;;;;;;5247998;28;8790;-67
2022/04/14 03:28:36;;;;;;;;;59.60;51.00;;;;;;;;5263669;28;11496;-67
2022/04/14 03:31:07;;;;;;;;;58.60;49.80;;;;;;;;5249474;28;8775;-67
2022/04/14 03:33:38;;;;;;;;;26.80;24.20;;;;;;;;5250250;28;8935;-67
2022/04/14 03:36:28;;;;;;;;;60.00;48.60;;;;;;;;5250946;28;8785;-67
2022/04/14 03:38:59;;;;;;;;;56.00;45.80;;;;;;;;5250772;28;8843;-67
2022/04/14 03:41:48;;;;;;;;;65.80;54.00;;;;;;;;5253456;28;8787;-67
2022/04/14 03:44:19;;;;;;;;;43.20;41.00;;;;;;;;5250193;28;8758;-67
2022/04/14 03:46:51;;;;;;;;;81.25;64.00;;;;;;;;5250465;28;8800;-67
2022/04/14 03:49:22;;;;;;;;;66.40;55.60;;;;;;;;5267997;28;8794;-67
2022/04/14 03:51:55;;;;;;;;;64.80;54.60;;;;;;;;5250132;28;8762;-67
2022/04/14 03:54:26;;;;;;;;;59.00;50.20;;;;;;;;5266879;28;8767;-67
2022/04/14 03:56:58;;;;;;;;;72.60;57.80;;;;;;;;5234131;28;8824;-67
2022/04/14 03:59:29;;;;;;;;;94.20;78.80;;;;;;;;5233370;28;8964;-67
2022/04/14 04:02:00;;;;;;;;;57.20;48.40;;;;;;;;5233337;28;8826;-67
2022/04/14 04:04:50;;;;;;;;;57.00;47.60;;;;;;;;5250108;28;8800;-67
2022/04/14 04:07:21;;;;;;;;;44.25;41.25;;;;;;;;5268270;28;8790;-67
2022/04/14 04:09:53;;;;;;;;;56.80;47.60;;;;;;;;5250282;28;10990;-67
2022/04/14 04:12:24;;;;;;;;;57.40;46.40;;;;;;;;5249903;28;8805;-66
2022/04/14 04:14:55;;;;;;;;;45.80;41.80;;;;;;;;5250318;28;8786;-67
2022/04/14 04:17:47;;;;;;;;;55.00;44.40;;;;;;;;5253398;28;8786;-66
2022/04/14 04:20:19;;;;;;;;;32.60;32.40;;;;;;;;5249554;28;8787;-66
2022/04/14 04:22:50;;;;;;;;;58.60;50.00;;;;;;;;5249400;28;8775;-67
2022/04/14 04:25:21;;;;;;;;;50.80;44.40;;;;;;;;5233303;28;8813;-66
2022/04/14 04:27:52;;;;;;;;;70.20;58.80;;;;;;;;5249398;28;8777;-66
2022/04/14 04:30:23;;;;;;;;;37.00;34.75;;;;;;;;5266764;28;8770;-66
2022/04/14 04:32:54;;;;;;;;;34.20;33.80;;;;;;;;5249674;28;8796;-67
2022/04/14 04:35:25;;;;;;;;;35.75;35.75;;;;;;;;5267507;28;8782;-66
2022/04/14 04:37:56;;;;;;;;;33.80;31.00;;;;;;;;5232912;28;8790;-66
2022/04/14 04:40:27;;;;;;;;;18.50;18.50;;;;;;;;5249156;28;9620;-66
2022/04/14 04:42:58;;;;;;;;;33.00;32.75;;;;;;;;5232485;28;11532;-66
2022/04/14 04:45:29;;;;;;;;;34.50;34.50;;;;;;;;5266944;28;8794;-67
2022/04/14 04:48:02;;;;;;;;;25.80;25.80;;;;;;;;5267321;28;9833;-67
2022/04/14 04:50:33;;;;;;;;;23.00;19.80;;;;;;;;5265981;28;8786;-67
2022/04/14 04:53:04;;;;;;;;;37.20;35.60;;;;;;;;5267185;28;8774;-67
2022/04/14 04:55:35;;;;;;;;;21.80;21.80;;;;;;;;5267434;28;8801;-67
2022/04/14 04:58:06;;;;;;;;;35.60;35.20;;;;;;;;5249153;28;8774;-67
2022/04/14 05:00:37;;;;;;;;;18.75;18.75;;;;;;;;5248630;28;8818;-67
2022/04/14 05:03:09;;;;;;;;;24.00;24.00;;;;;;;;5232425;28;8786;-66
2022/04/14 05:05:42;;;;;;;;;6.80;6.60;;;;;;;;5232363;28;9481;-66
2022/04/14 05:08:13;;;;;;;;;46.00;41.80;;;;;;;;5231932;28;8786;-65
2022/04/14 05:11:02;;;;;;;;;14.40;14.40;;;;;;;;5242324;28;8779;-65
2022/04/14 05:13:52;;;;;;;;;73.00;57.80;;;;;;;;5249577;28;8802;-65
2022/04/14 05:16:23;;;;;;;;;40.60;37.60;;;;;;;;5260802;28;8806;-65
2022/04/14 05:18:54;;;;;;;;;27.40;27.40;;;;;;;;5209937;28;8766;-65
2022/04/14 05:21:26;;;;;;;;;31.00;31.00;;;;;;;;5210166;28;8825;-66
2022/04/14 05:23:57;;;;;;;;;36.60;36.20;;;;;;;;5253238;28;8811;-65
2022/04/14 05:26:28;;;;;;;;;11.20;11.20;;;;;;;;5265182;28;8798;-66
2022/04/14 05:28:59;;;;;;;;;20.60;20.00;;;;;;;;5247118;28;8779;-65
2022/04/14 05:31:31;;;;;;;;;61.50;50.25;;;;;;;;5264329;28;9584;-65
2022/04/14 05:34:09;;;;;;;;;45.80;38.60;;;;;;;;5265271;28;9240;-66
2022/04/14 05:36:40;;;;;;;;;21.80;21.80;;;;;;;;5265077;28;8934;-65
2022/04/14 05:39:30;;;;;;;;;25.40;25.40;;;;;;;;5262912;28;8802;-66
2022/04/14 05:42:01;;;;;;;;;12.75;12.75;;;;;;;;5247762;28;9553;-65
2022/04/14 05:44:32;;;;;;;;;32.60;32.20;;;;;;;;5235212;28;8790;-65
2022/04/14 05:47:03;;;;;;;;;16.20;15.00;;;;;;;;5253122;28;8809;-65
2022/04/14 05:49:34;;;;;;;;;34.60;34.40;;;;;;;;5252209;28;8818;-65
2022/04/14 05:52:05;;;;;;;;;20.00;19.60;;;;;;;;5252806;28;8855;-65
2022/04/14 05:54:36;;;;;;;;;7.60;7.60;;;;;;;;5235692;28;8779;-65
2022/04/14 05:57:07;;;;;;;;;19.00;18.25;;;;;;;;5270661;28;8890;-65
2022/04/14 05:59:38;;;;;;;;;6.40;6.40;;;;;;;;5269144;28;8814;-65
2022/04/14 06:02:09;;;;;;;;;8.80;8.80;;;;;;;;5270161;28;8818;-65
2022/04/14 06:04:40;;;;;;;;;6.60;6.60;;;;;;;;5270423;28;8906;-66
2022/04/14 06:07:11;;;;;;;;;15.00;15.00;;;;;;;;5235582;28;8916;-66
2022/04/14 06:09:42;;;;;;;;;18.25;17.75;;;;;;;;5252080;28;8787;-64
2022/04/14 06:12:13;;;;;;;;;17.40;17.40;;;;;;;;5269136;28;8790;-65
2022/04/14 06:14:44;;;;;;;;;25.40;25.40;;;;;;;;5270267;28;8771;-65
2022/04/14 06:17:15;;;;;;;;;9.60;9.40;;;;;;;;5252216;28;9493;-65
2022/04/14 06:20:04;;;;;;;;;6.00;6.00;;;;;;;;5270314;28;8779;-65
2022/04/14 06:22:36;;;;;;;;;36.20;32.00;;;;;;;;5268593;28;8848;-65
2022/04/14 06:25:12;;;;;;;;;10.80;10.80;;;;;;;;5270201;28;8771;-65
2022/04/14 06:27:44;;;;;;;;;9.00;9.00;;;;;;;;5270226;28;8795;-65
2022/04/14 06:30:16;;;;;;;;;14.40;13.00;;;;;;;;5252075;28;8859;-65
2022/04/14 06:33:00;;;;;;;;;4.80;4.80;;;;;;;;5269076;28;9477;-65
2022/04/14 06:35:31;;;;;;;;;13.40;13.40;;;;;;;;5235047;28;8815;-66
2022/04/14 06:38:02;;;;;;;;;9.40;9.40;;;;;;;;5251790;28;8822;-66
2022/04/14 06:40:34;;;;;;;;;9.60;9.60;;;;;;;;5269319;28;8895;-66
2022/04/14 06:43:04;;;;;;;;;8.40;8.40;;;;;;;;5269932;28;8782;-66
2022/04/14 06:45:35;;;;;;;;;11.40;11.40;;;;;;;;5269259;28;8774;-65
2022/04/14 06:48:09;;;;;;;;;8.00;8.00;;;;;;;;5251402;28;8917;-64
2022/04/14 06:50:41;;;;;;;;;10.80;10.80;;;;;;;;5269575;28;8904;-66
2022/04/14 06:53:12;;;;;;;;;10.60;10.60;;;;;;;;5268544;28;8767;-65
2022/04/14 06:55:47;;;;;;;;;13.00;13.00;;;;;;;;5251904;28;8891;-65
2022/04/14 06:58:19;;;;;;;;;10.40;9.20;;;;;;;;5269693;28;10084;-67
2022/04/14 07:00:49;;;;;;;;;23.80;23.60;;;;;;;;5250831;28;8818;-65
2022/04/14 07:03:40;;;;;;;;;2.25;2.25;;;;;;;;5269456;28;9505;-65
2022/04/14 07:06:12;;;;;;;;;2.00;2.00;;;;;;;;5269164;28;8957;-65
2022/04/14 07:09:01;;;;;;;;;1.00;1.00;;;;;;;;5250963;28;8787;-65
2022/04/14 07:11:32;;;;;;;;;2.00;2.00;;;;;;;;5234791;28;8837;-65
2022/04/14 07:14:21;;;;;;;;;3.40;3.00;;;;;;;;5269722;28;11498;-65
2022/04/14 07:17:11;;;;;;;;;14.20;14.20;;;;;;;;5269270;28;8758;-65
2022/04/14 07:20:03;;;;;;;;;4.40;4.40;;;;;;;;5250985;28;8770;-65
2022/04/14 07:22:44;;;;;;;;;19.00;19.00;;;;;;;;5250534;28;8825;-65
2022/04/14 07:25:15;;;;;;;;;26.40;23.20;;;;;;;;5250840;28;8799;-65
2022/04/14 07:27:46;;;;;;;;;101.40;74.80;;;;;;;;5267713;28;8774;-65
2022/04/14 07:30:18;;;;;;;;;4.33;3.67;;;;;;;;5269176;28;8855;-65
2022/04/14 07:32:49;;;;;;;;;60.20;50.80;;;;;;;;5234123;28;11632;-65
2022/04/14 07:35:38;;;;;;;;;1.00;1.00;;;;;;;;5268590;28;8798;-65
2022/04/14 07:38:09;;;;;;;;;2.00;2.00;;;;;;;;5268770;28;9582;-66
2022/04/14 07:40:40;;;;;;;;;8.75;8.75;;;;;;;;5249810;28;8802;-65
2022/04/14 07:43:13;;;;;;;;;61.80;51.40;;;;;;;;5266417;28;10116;-65
2022/04/14 07:45:45;;;;;;;;;5.00;5.00;;;;;;;;5250616;28;8794;-65
2022/04/14 07:48:35;;;;;;;;;6.80;6.20;;;;;;;;5268753;28;8788;-65
2022/04/14 07:51:07;;;;;;;;;2.00;2.00;;;;;;;;5249310;28;8786;-66
2022/04/14 07:53:57;;;;;;;;;0.00;0.00;;;;;;;;5250175;28;8794;-66
2022/04/14 07:56:27;;;;;;;;;2.00;2.00;;;;;;;;5228172;28;8889;-66
2022/04/14 07:58:59;;;;;;;;;0.00;0.00;;;;;;;;5241567;28;8820;-66
2022/04/14 08:01:30;;;;;;;;;0.00;0.00;;;;;;;;5267284;28;8897;-66
2022/04/14 08:04:03;;;;;;;;;25.40;23.00;;;;;;;;5217539;28;8798;-66
2022/04/14 08:06:53;;;;;;;;;4.20;4.20;;;;;;;;5249731;28;8778;-66
2022/04/14 08:09:24;;;;;;;;;2.00;2.00;;;;;;;;5266580;28;8807;-66
2022/04/14 08:11:55;;;;;;;;;34.00;31.20;;;;;;;;5267602;28;8872;-67
2022/04/14 08:14:26;;;;;;;;;23.00;22.60;;;;;;;;5267719;28;8790;-66
2022/04/14 08:17:03;;;;;;;;;6.75;6.75;;;;;;;;5266843;28;8786;-66
2022/04/14 08:19:34;;;;;;;;;13.20;13.20;;;;;;;;5268159;28;8822;-67
2022/04/14 08:22:23;;;;;;;;;4.00;4.00;;;;;;;;5267673;28;8796;-66
2022/04/14 08:24:54;;;;;;;;;35.50;35.00;;;;;;;;5233021;28;8918;-66
2022/04/14 08:27:25;;;;;;;;;3.00;3.00;;;;;;;;5266355;28;8798;-66
2022/04/14 08:29:56;;;;;;;;;0.00;0.00;;;;;;;;5267796;28;8779;-66
2022/04/14 08:32:46;;;;;;;;;2.00;2.00;;;;;;;;5267060;28;8787;-66
2022/04/14 08:35:18;;;;;;;;;2.00;2.00;;;;;;;;5266265;28;8818;-66
2022/04/14 08:37:50;;;;;;;;;5.25;5.25;;;;;;;;5267855;28;8802;-66
2022/04/14 08:40:22;;;;;;;;;9.20;9.20;;;;;;;;5268054;28;8825;-66
2022/04/14 08:43:00;;;;;;;;;1.00;1.00;;;;;;;;5250546;28;8790;-66
2022/04/14 08:45:32;;;;;;;;;4.50;4.00;;;;;;;;5249784;28;8790;-66
2022/04/14 08:48:04;;;;;;;;;10.00;10.00;;;;;;;;5249507;28;9536;-66
2022/04/14 08:50:35;;;;;;;;;4.50;4.50;;;;;;;;5249622;28;8774;-67
2022/04/14 08:53:07;;;;;;;;;27.80;27.80;;;;;;;;5267486;28;9461;-66
2022/04/14 08:55:39;;;;;;;;;7.75;7.75;;;;;;;;5249845;28;8972;-66
2022/04/14 08:58:12;;;;;;;;;9.40;9.40;;;;;;;;5233173;28;8770;-66
2022/04/14 09:00:43;;;;;;;;;4.00;3.00;;;;;;;;5267774;28;8837;-66
2022/04/14 09:03:15;;;;;;;;;9.50;9.50;;;;;;;;5233297;28;8763;-66
2022/04/14 09:05:46;;;;;;;;;1.00;1.00;;;;;;;;5249601;28;9387;-66
2022/04/14 09:08:35;;;;;;;;;2.50;2.50;;;;;;;;5267721;28;8783;-66
2022/04/14 09:11:09;;;;;;;;;4.75;4.25;;;;;;;;5233017;28;8777;-66
2022/04/14 09:13:43;;;;;;;;;0.00;0.00;;;;;;;;5249653;28;8771;-66
2022/04/14 09:16:14;;;;;;;;;0.75;0.75;;;;;;;;5248910;28;8795;-65
2022/04/14 09:18:46;;;;;;;;;3.00;3.00;;;;;;;;5266168;28;8801;-65
2022/04/14 09:21:17;;;;;;;;;3.00;3.00;;;;;;;;5248319;28;8821;-65
2022/04/14 09:23:51;;;;;;;;;1.00;1.00;;;;;;;;5267038;28;8767;-65
2022/04/14 09:26:23;;;;;;;;;31.60;30.80;;;;;;;;5248190;28;10190;-66
2022/04/14 09:29:01;;;;;;;;;1.00;1.00;;;;;;;;5248632;28;8771;-65
2022/04/14 09:31:46;;;;;;;;;0.00;0.00;;;;;;;;5266503;28;8806;-65
2022/04/14 09:34:19;;;;;;;;;46.40;41.80;;;;;;;;5265357;28;9593;-65
2022/04/14 09:37:09;;;;;;;;;7.75;7.75;;;;;;;;5248108;28;8821;-65
2022/04/14 09:40:02;;;;;;;;;3.25;3.25;;;;;;;;5246123;28;8788;-65
2022/04/14 09:42:34;;;;;;;;;0.00;0.00;;;;;;;;5248183;28;8805;-65
2022/04/14 09:45:28;;;;;;;;;2.25;2.25;;;;;;;;5251459;28;8775;-66
2022/04/14 09:48:16;;;;;;;;;6.50;6.00;;;;;;;;5266538;28;8802;-65
2022/04/14 09:50:47;;;;;;;;;29.60;29.00;;;;;;;;5231335;28;8825;-65
2022/04/14 09:53:19;;;;;;;;;8.25;7.75;;;;;;;;5226324;28;8789;-65
2022/04/14 09:56:08;;;;;;;;;9.75;9.75;;;;;;;;5256169;28;8798;-66
2022/04/14 09:58:40;;;;;;;;;1.00;1.00;;;;;;;;5262492;28;9527;-65
2022/04/14 10:01:20;;;;;;;;;1.00;1.00;;;;;;;;5247741;28;8806;-66
2022/04/14 10:03:51;;;;;;;;;3.25;3.25;;;;;;;;5242941;28;8909;-66
2022/04/14 10:06:22;;;;;;;;;0.00;0.00;;;;;;;;5240090;28;8958;-66
2022/04/14 10:09:26;;;;;;;;;2.75;2.75;;;;;;;;5251175;28;8832;-66
2022/04/14 10:11:57;;;;;;;;;54.40;46.00;;;;;;;;5248045;28;8779;-66
2022/04/14 10:14:28;;;;;;;;;8.50;8.50;;;;;;;;5264503;28;8825;-66
2022/04/14 10:17:02;;;;;;;;;0.00;0.00;;;;;;;;5266146;28;8960;-65
2022/04/14 10:19:33;;;;;;;;;0.00;0.00;;;;;;;;5266196;28;8799;-64
2022/04/14 10:22:06;;;;;;;;;1.50;1.50;;;;;;;;5247667;28;8822;-66
2022/04/14 10:24:39;;;;;;;;;1.00;1.00;;;;;;;;5227561;28;8785;-66
2022/04/14 10:27:11;;;;;;;;;3.50;3.50;;;;;;;;5245155;28;8875;-66
2022/04/14 10:29:43;;;;;;;;;80.00;63.00;;;;;;;;5265275;28;8770;-66
2022/04/14 10:32:14;;;;;;;;;188.67;148.67;;;;;;;;5234891;28;9533;-65
2022/04/14 10:35:05;;;;;;;;;180.80;135.20;;;;;;;;5251482;28;9739;-66
2022/04/14 10:37:38;;;;;;;;;7.25;4.00;;;;;;;;5251297;28;8879;-66
2022/04/14 10:40:10;;;;;;;;;51.40;44.00;;;;;;;;5251320;28;9542;-66
2022/04/14 10:42:49;;;;;;;;;80.00;64.00;;;;;;;;5251526;28;8798;-66
2022/04/14 10:45:23;;;;;;;;;43.40;39.40;;;;;;;;5218161;28;8810;-65
2022/04/14 10:47:55;;;;;;;;;10.00;10.00;;;;;;;;5234859;28;8833;-66
2022/04/14 10:50:32;;;;;;;;;1.50;1.50;;;;;;;;5269422;28;8790;-66
2022/04/14 10:53:08;;;;;;;;;2.50;2.50;;;;;;;;5269804;28;8763;-66
2022/04/14 10:55:57;;;;;;;;;2.75;2.75;;;;;;;;5269293;28;8850;-66
2022/04/14 10:58:28;;;;;;;;;1.00;1.00;;;;;;;;5268937;28;8905;-66
2022/04/14 11:00:59;;;;;;;;;2.33;2.00;;;;;;;;5268828;28;8826;-65
2022/04/14 11:03:49;;;;;;;;;2.50;2.50;;;;;;;;5269330;28;8798;-66
2022/04/14 11:06:39;;;;;;;;;6.00;6.00;;;;;;;;5268307;28;8789;-66
2022/04/14 11:09:29;;;;;;;;;37.20;35.60;;;;;;;;5268596;28;8875;-66
2022/04/14 11:12:00;;;;;;;;;0.00;0.00;;;;;;;;5268605;28;8798;-66
2022/04/14 11:14:35;;;;;;;;;0.25;0.25;;;;;;;;5250774;28;9599;-65
2022/04/14 11:17:05;;;;;;;;;0.00;0.00;;;;;;;;5249964;28;8810;-66
2022/04/14 11:19:36;;;;;;;;;1.67;1.67;;;;;;;;5268181;28;8782;-66
2022/04/14 11:22:08;;;;;;;;;3.00;3.00;;;;;;;;5269060;28;8906;-66
2022/04/14 11:24:57;;;;;;;;;0.00;0.00;;;;;;;;5253049;28;8763;-66
2022/04/14 11:27:30;;;;;;;;;2.00;1.67;;;;;;;;5269166;28;8787;-66
2022/04/14 11:30:03;;;;;;;;;21.40;21.40;;;;;;;;5250399;28;8813;-66
2022/04/14 11:32:36;;;;;;;;;1.00;1.00;;;;;;;;5267461;28;9485;-67
2022/04/14 11:35:08;;;;;;;;;0.00;0.00;;;;;;;;5251100;28;8773;-66
2022/04/14 11:37:58;;;;;;;;;1.00;1.00;;;;;;;;5253354;28;8770;-65
2022/04/14 11:40:28;;;;;;;;;2.00;2.00;;;;;;;;5267822;28;8860;-66
2022/04/14 11:43:18;;;;;;;;;2.00;2.00;;;;;;;;5267945;28;8799;-66
2022/04/14 11:45:50;;;;;;;;;1.50;1.50;;;;;;;;5268537;28;9477;-65
2022/04/14 11:48:21;;;;;;;;;0.00;0.00;;;;;;;;5233955;28;8818;-65
2022/04/14 11:50:54;;;;;;;;;1.00;1.00;;;;;;;;5250227;28;8821;-65
2022/04/14 11:53:29;;;;;;;;;0.00;0.00;;;;;;;;5250331;28;8778;-65
2022/04/14 11:56:00;;;;;;;;;6.25;6.25;;;;;;;;5246593;28;8775;-66
2022/04/14 11:58:34;;;;;;;;;2.00;2.00;;;;;;;;5268211;28;8805;-65
2022/04/14 12:01:06;;;;;;;;;1.75;1.75;;;;;;;;5267901;28;11320;-65
2022/04/14 12:03:37;;;;;;;;;2.00;2.00;;;;;;;;5268981;28;9471;-65
2022/04/14 12:06:10;;;;;;;;;78.60;69.20;;;;;;;;5250793;28;8780;-65
2022/04/14 12:08:41;;;;;;;;;6.75;6.75;;;;;;;;5267696;28;8780;-65
2022/04/14 12:11:13;;;;;;;;;28.40;28.20;;;;;;;;5250238;28;8796;-65
2022/04/14 12:13:44;;;;;;;;;3.00;3.00;;;;;;;;5250012;28;8822;-65
2022/04/14 12:16:15;;;;;;;;;0.67;0.67;;;;;;;;5268221;28;8855;-65
2022/04/14 12:18:51;;;;;;;;;7.00;7.00;;;;;;;;5253515;28;8782;-65
2022/04/14 12:21:23;;;;;;;;;7.75;7.50;;;;;;;;5254765;28;8969;-65
2022/04/14 12:24:12;;;;;;;;;7.00;7.00;;;;;;;;5271739;28;8814;-65
2022/04/14 12:26:43;;;;;;;;;2.00;2.00;;;;;;;;5237572;28;9539;-65
2022/04/14 12:29:14;;;;;;;;;2.00;2.00;;;;;;;;5251008;28;8937;-64
2022/04/14 12:31:45;;;;;;;;;1.25;1.25;;;;;;;;5250424;28;11380;-64
2022/04/14 12:34:16;;;;;;;;;3.75;3.75;;;;;;;;5250393;28;8787;-65
2022/04/14 12:36:47;;;;;;;;;3.00;2.00;;;;;;;;5249129;28;8859;-64
2022/04/14 12:39:36;;;;;;;;;3.00;3.00;;;;;;;;5237966;28;8817;-64
2022/04/14 12:42:14;;;;;;;;;6.75;6.50;;;;;;;;5245929;28;8808;-64
2022/04/14 12:44:45;;;;;;;;;11.80;11.40;;;;;;;;5235144;28;8792;-64
2022/04/14 12:47:16;;;;;;;;;3.20;3.20;;;;;;;;5249415;28;8790;-63
2022/04/14 12:49:47;;;;;;;;;2.75;2.75;;;;;;;;5250018;28;8759;-63
2022/04/14 12:52:18;;;;;;;;;7.33;7.33;;;;;;;;5232284;28;8810;-65
2022/04/14 12:54:50;;;;;;;;;22.75;21.50;;;;;;;;5248937;28;8793;-64
2022/04/14 12:57:22;;;;;;;;;219.25;162.50;;;;;;;;5250308;28;11040;-64
2022/04/14 13:00:10;;;;;;;;;53.80;43.40;;;;;;;;5268132;28;10285;-65
2022/04/14 13:02:42;;;;;;;;;4.00;4.00;;;;;;;;5266831;28;8775;-65
2022/04/14 13:05:37;;;;;;;;;43.80;33.60;;;;;;;;5258057;28;9507;-64
2022/04/14 13:08:08;;;;;;;;;43.60;36.80;;;;;;;;5247698;28;8873;-64
2022/04/14 13:10:45;;;;;;;;;22.40;20.80;;;;;;;;5245127;28;8765;-65
2022/04/14 13:13:34;;;;;;;;;13.40;13.40;;;;;;;;5246800;28;8965;-64
2022/04/14 13:16:05;;;;;;;;;2.00;2.00;;;;;;;;5240580;28;8816;-64
2022/04/14 13:18:55;;;;;;;;;2.50;2.50;;;;;;;;5267255;28;8759;-64
2022/04/14 13:21:26;;;;;;;;;3.33;3.33;;;;;;;;5264198;28;8803;-65
2022/04/14 13:23:57;;;;;;;;;10.40;10.40;;;;;;;;5244912;28;8809;-64
2022/04/14 13:26:27;;;;;;;;;3.33;3.33;;;;;;;;5228371;28;8853;-64
2022/04/14 13:28:58;;;;;;;;;11.50;11.50;;;;;;;;5246810;28;8761;-65
2022/04/14 13:31:31;;;;;;;;;8.75;8.00;;;;;;;;5246437;28;8772;-64
2022/04/14 13:34:01;;;;;;;;;18.80;18.80;;;;;;;;5228598;28;10579;-64
2022/04/14 13:36:33;;;;;;;;;5.33;5.33;;;;;;;;5246186;28;8789;-64
2022/04/14 13:39:04;;;;;;;;;4.25;4.25;;;;;;;;5245127;28;8781;-65
2022/04/14 13:41:38;;;;;;;;;10.00;10.00;;;;;;;;5245476;28;8815;-65
2022/04/14 13:44:09;;;;;;;;;3.00;3.00;;;;;;;;5246375;28;8749;-65
2022/04/14 13:46:40;;;;;;;;;7.50;7.50;;;;;;;;5246268;28;8769;-65
2022/04/14 13:49:11;;;;;;;;;10.40;10.40;;;;;;;;5228347;28;11435;-65
2022/04/14 13:51:42;;;;;;;;;48.25;41.75;;;;;;;;5246288;28;8808;-65
2022/04/14 13:54:13;;;;;;;;;104.25;83.75;;;;;;;;5246332;28;9526;-65
2022/04/14 13:57:02;;;;;;;;;32.80;29.80;;;;;;;;5252026;28;8809;-66
2022/04/14 13:59:33;;;;;;;;;132.20;96.00;;;;;;;;5249744;28;8826;-66
2022/04/14 14:02:05;;;;;;;;;121.00;88.67;;;;;;;;5266318;28;8833;-66
2022/04/14 14:04:36;;;;;;;;;101.40;68.80;;;;;;;;5269613;28;8948;-66
2022/04/14 14:07:06;;;;;;;;;61.00;44.75;;;;;;;;5267531;28;8794;-66
2022/04/14 14:09:38;;;;;;;;;100.25;67.25;;;;;;;;5249117;28;8813;-66
2022/04/14 14:12:29;;;;;;;;;106.80;85.20;;;;;;;;5268047;28;9893;-66
2022/04/14 14:15:00;;;;;;;;;87.60;71.20;;;;;;;;5250757;28;9612;-66
2022/04/14 14:17:31;;;;;;;;;2.33;2.33;;;;;;;;5241075;28;8981;-66
2022/04/14 14:20:02;;;;;;;;;16.50;16.50;;;;;;;;5264757;28;12159;-65
2022/04/14 14:22:34;;;;;;;;;13.00;13.00;;;;;;;;5263741;28;8878;-66
2022/04/14 14:25:05;;;;;;;;;7.00;7.00;;;;;;;;5240731;28;8802;-65
2022/04/14 14:27:36;;;;;;;;;10.60;10.60;;;;;;;;5251503;28;8762;-66
2022/04/14 14:30:08;;;;;;;;;23.60;22.00;;;;;;;;5234857;28;8794;-65
2022/04/14 14:32:57;;;;;;;;;3.20;3.20;;;;;;;;5270038;28;8797;-64
2022/04/14 14:35:28;;;;;;;;;28.20;27.60;;;;;;;;5251699;28;8778;-64
2022/04/14 14:37:59;;;;;;;;;10.25;10.25;;;;;;;;5233293;28;9595;-65
2022/04/14 14:40:30;;;;;;;;;8.50;8.50;;;;;;;;5238888;28;11485;-65
2022/04/14 14:43:01;;;;;;;;;14.25;14.25;;;;;;;;5251483;28;8805;-65
2022/04/14 14:45:33;;;;;;;;;9.00;9.00;;;;;;;;5268677;28;8883;-65
2022/04/14 14:48:04;;;;;;;;;16.80;16.80;;;;;;;;5233136;28;8825;-65
2022/04/14 14:50:35;;;;;;;;;16.40;16.00;;;;;;;;5244977;28;9567;-65
2022/04/14 14:53:06;;;;;;;;;13.00;13.00;;;;;;;;5233821;28;8798;-65
2022/04/14 14:55:37;;;;;;;;;20.80;20.80;;;;;;;;5269287;28;11465;-65
2022/04/14 15:01:16;;;;;;;;;30.80;26.80;;;;;;;;5265755;28;8850;-65
2022/04/14 15:03:47;;;;;;;;;30.00;27.20;;;;;;;;5256360;28;8804;-65
2022/04/14 15:06:19;;;;;;;;;45.75;40.25;;;;;;;;5251182;28;8758;-65
2022/04/14 15:08:50;;;;;;;;;36.60;34.20;;;;;;;;5250796;28;8796;-65
2022/04/14 15:11:21;;;;;;;;;145.75;113.00;;;;;;;;5268823;28;8787;-65
2022/04/14 15:13:52;;;;;;;;;87.80;68.20;;;;;;;;5228983;28;8803;-66
2022/04/14 15:16:41;;;;;;;;;91.20;67.40;;;;;;;;5242473;28;8811;-64
2022/04/14 15:19:31;;;;;;;;;49.60;41.40;;;;;;;;5234297;28;8775;-65
2022/04/14 15:22:02;;;;;;;;;44.80;40.20;;;;;;;;5228333;28;8851;-65
2022/04/14 15:24:33;;;;;;;;;21.60;21.60;;;;;;;;5230637;28;8814;-65